sensor_id;sensor_type;location;lat;lon;timestamp;pressure;altitude;pressure_sealevel;temperature;humidity
54936;BME280;40838;50.676;7.838;2023-07-30T00:01:09;97771.91;;;19.10;100.00
54936;BME280;40838;50.676;7.838;2023-07-30T00:03:41;97772.69;;;19.11;100.00
54936;BME280;40838;50.676;7.838;2023-07-30T00:06:09;97763.06;;;19.18;100.00
54936;BME280;40838;50.676;7.838;2023-07-30T00:08:36;97762.56;;;19.25;100.00
54936;BME280;40838;50.676;7.838;2023-07-30T00:11:24;97766.72;;;19.05;100.00
54936;BME280;40838;50.676;7.838;2023-07-30T00:13:50;97774.09;;;19.17;100.00
54936;BME280;40838;50.676;7.838;2023-07-30T00:16:25;97768.38;;;19.36;100.00
54936;BME280;40838;50.676;7.838;2023-07-30T00:18:54;97776.03;;;19.08;100.00
54936;BME280;40838;50.676;7.838;2023-07-30T00:21:24;97780.06;;;19.31;100.00
54936;BME280;40838;50.676;7.838;2023-07-30T00:23:58;97777.22;;;19.27;100.00
54936;BME280;40838;50.676;7.838;2023-07-30T00:26:26;97777.53;;;19.26;100.00
54936;BME280;40838;50.676;7.838;2023-07-30T00:29:00;97781.44;;;18.73;100.00
54936;BME280;40838;50.676;7.838;2023-07-30T00:31:30;97785.88;;;18.86;100.00
54936;BME280;40838;50.676;7.838;2023-07-30T00:34:08;97786.31;;;18.88;100.00
54936;BME280;40838;50.676;7.838;2023-07-30T00:36:46;97794.97;;;19.02;100.00
54936;BME280;40838;50.676;7.838;2023-07-30T00:39:12;97789.16;;;18.92;100.00
54936;BME280;40838;50.676;7.838;2023-07-30T00:41:41;97797.81;;;19.06;100.00
54936;BME280;40838;50.676;7.838;2023-07-30T00:44:08;97792.00;;;18.87;100.00
54936;BME280;40838;50.676;7.838;2023-07-30T00:46:35;97796.88;;;18.93;100.00
54936;BME280;40838;50.676;7.838;2023-07-30T00:49:02;97797.16;;;19.18;100.00
54936;BME280;40838;50.676;7.838;2023-07-30T00:51:31;97809.59;;;19.22;100.00
54936;BME280;40838;50.676;7.838;2023-07-30T00:53:58;97809.13;;;19.20;100.00
54936;BME280;40838;50.676;7.838;2023-07-30T00:56:26;97802.88;;;18.99;100.00
54936;BME280;40838;50.676;7.838;2023-07-30T00:58:54;97802.00;;;19.33;100.00
54936;BME280;40838;50.676;7.838;2023-07-30T01:01:21;97807.66;;;19.32;100.00
54936;BME280;40838;50.676;7.838;2023-07-30T01:03:49;97808.56;;;18.97;100.00
54936;BME280;40838;50.676;7.838;2023-07-30T01:06:17;97818.03;;;18.95;100.00
54936;BME280;40838;50.676;7.838;2023-07-30T01:08:46;97811.25;;;18.97;100.00
54936;BME280;40838;50.676;7.838;2023-07-30T01:11:15;97810.75;;;18.95;100.00
54936;BME280;40838;50.676;7.838;2023-07-30T01:13:47;97809.38;;;18.80;100.00
54936;BME280;40838;50.676;7.838;2023-07-30T01:16:17;97823.38;;;18.51;100.00
54936;BME280;40838;50.676;7.838;2023-07-30T01:18:48;97815.31;;;18.34;100.00
54936;BME280;40838;50.676;7.838;2023-07-30T01:21:18;97818.66;;;18.48;100.00
54936;BME280;40838;50.676;7.838;2023-07-30T01:23:48;97821.50;;;18.60;100.00
54936;BME280;40838;50.676;7.838;2023-07-30T01:26:19;97817.41;;;18.80;100.00
54936;BME280;40838;50.676;7.838;2023-07-30T01:29:01;97814.25;;;18.78;100.00
54936;BME280;40838;50.676;7.838;2023-07-30T01:31:32;97820.09;;;18.72;100.00
54936;BME280;40838;50.676;7.838;2023-07-30T01:34:02;97820.25;;;18.84;100.00
54936;BME280;40838;50.676;7.838;2023-07-30T01:36:32;97818.03;;;18.95;100.00
54936;BME280;40838;50.676;7.838;2023-07-30T01:38:59;97818.81;;;18.87;100.00
54936;BME280;40838;50.676;7.838;2023-07-30T01:41:32;97824.66;;;18.80;100.00
54936;BME280;40838;50.676;7.838;2023-07-30T01:43:59;97826.88;;;18.69;100.00
54936;BME280;40838;50.676;7.838;2023-07-30T01:46:28;97835.00;;;18.38;100.00
54936;BME280;40838;50.676;7.838;2023-07-30T01:49:00;97840.75;;;18.80;100.00
54936;BME280;40838;50.676;7.838;2023-07-30T01:51:28;97830.81;;;18.89;100.00
54936;BME280;40838;50.676;7.838;2023-07-30T01:53:57;97821.56;;;18.03;100.00
54936;BME280;40838;50.676;7.838;2023-07-30T01:56:25;97827.66;;;17.78;100.00
54936;BME280;40838;50.676;7.838;2023-07-30T01:58:52;97824.59;;;18.10;100.00
54936;BME280;40838;50.676;7.838;2023-07-30T02:01:22;97822.00;;;17.17;100.00
54936;BME280;40838;50.676;7.838;2023-07-30T02:03:48;97830.03;;;17.57;100.00
54936;BME280;40838;50.676;7.838;2023-07-30T02:06:15;97832.25;;;17.94;100.00
54936;BME280;40838;50.676;7.838;2023-07-30T02:08:50;97826.84;;;18.43;100.00
54936;BME280;40838;50.676;7.838;2023-07-30T02:11:18;97839.13;;;18.44;100.00
54936;BME280;40838;50.676;7.838;2023-07-30T02:13:48;97843.06;;;18.38;100.00
54936;BME280;40838;50.676;7.838;2023-07-30T02:16:15;97853.97;;;18.59;100.00
54936;BME280;40838;50.676;7.838;2023-07-30T02:18:44;97846.13;;;18.63;100.00
54936;BME280;40838;50.676;7.838;2023-07-30T02:21:23;97851.28;;;18.59;100.00
54936;BME280;40838;50.676;7.838;2023-07-30T02:23:50;97851.63;;;18.92;100.00
54936;BME280;40838;50.676;7.838;2023-07-30T02:26:21;97848.44;;;18.99;100.00
54936;BME280;40838;50.676;7.838;2023-07-30T02:28:47;97848.63;;;18.85;100.00
54936;BME280;40838;50.676;7.838;2023-07-30T02:31:20;97858.06;;;18.82;100.00
54936;BME280;40838;50.676;7.838;2023-07-30T02:34:26;97855.22;;;18.96;100.00
54936;BME280;40838;50.676;7.838;2023-07-30T02:36:39;97859.03;;;18.60;100.00
54936;BME280;40838;50.676;7.838;2023-07-30T02:39:05;97850.84;;;18.74;100.00
54936;BME280;40838;50.676;7.838;2023-07-30T02:41:43;97850.00;;;19.09;100.00
54936;BME280;40838;50.676;7.838;2023-07-30T02:44:10;97855.44;;;17.99;100.00
54936;BME280;40838;50.676;7.838;2023-07-30T02:46:49;97853.81;;;18.81;100.00
54936;BME280;40838;50.676;7.838;2023-07-30T02:49:15;97853.94;;;18.50;100.00
54936;BME280;40838;50.676;7.838;2023-07-30T02:51:42;97850.03;;;19.00;100.00
54936;BME280;40838;50.676;7.838;2023-07-30T02:54:14;97856.84;;;18.89;100.00
54936;BME280;40838;50.676;7.838;2023-07-30T02:56:44;97859.97;;;18.82;100.00
54936;BME280;40838;50.676;7.838;2023-07-30T02:59:11;97864.69;;;18.85;100.00
54936;BME280;40838;50.676;7.838;2023-07-30T03:01:38;97860.44;;;18.93;100.00
54936;BME280;40838;50.676;7.838;2023-07-30T03:04:05;97865.47;;;19.03;100.00
54936;BME280;40838;50.676;7.838;2023-07-30T03:06:32;97862.56;;;18.30;100.00
54936;BME280;40838;50.676;7.838;2023-07-30T03:09:00;97859.94;;;19.17;100.00
54936;BME280;40838;50.676;7.838;2023-07-30T03:11:29;97864.66;;;19.28;100.00
54936;BME280;40838;50.676;7.838;2023-07-30T03:13:58;97869.59;;;19.09;100.00
54936;BME280;40838;50.676;7.838;2023-07-30T03:16:24;97874.22;;;17.77;100.00
54936;BME280;40838;50.676;7.838;2023-07-30T03:18:51;97876.69;;;18.96;100.00
54936;BME280;40838;50.676;7.838;2023-07-30T03:21:18;97867.47;;;19.32;100.00
54936;BME280;40838;50.676;7.838;2023-07-30T03:23:49;97867.38;;;19.02;100.00
54936;BME280;40838;50.676;7.838;2023-07-30T03:26:16;97863.72;;;19.33;100.00
54936;BME280;40838;50.676;7.838;2023-07-30T03:28:45;97857.88;;;19.31;100.00
54936;BME280;40838;50.676;7.838;2023-07-30T03:31:13;97853.38;;;19.61;100.00
54936;BME280;40838;50.676;7.838;2023-07-30T03:33:49;97858.47;;;19.54;100.00
54936;BME280;40838;50.676;7.838;2023-07-30T03:36:21;97855.31;;;19.52;100.00
54936;BME280;40838;50.676;7.838;2023-07-30T03:38:51;97859.09;;;19.60;100.00
54936;BME280;40838;50.676;7.838;2023-07-30T03:41:28;97864.56;;;19.72;100.00
54936;BME280;40838;50.676;7.838;2023-07-30T03:44:04;97867.53;;;18.54;100.00
54936;BME280;40838;50.676;7.838;2023-07-30T03:46:33;97856.81;;;19.06;100.00
54936;BME280;40838;50.676;7.838;2023-07-30T03:49:02;97867.94;;;19.51;100.00
54936;BME280;40838;50.676;7.838;2023-07-30T03:51:31;97862.28;;;19.44;100.00
54936;BME280;40838;50.676;7.838;2023-07-30T03:53:58;97864.38;;;19.13;100.00
54936;BME280;40838;50.676;7.838;2023-07-30T03:56:26;97861.84;;;19.16;100.00
54936;BME280;40838;50.676;7.838;2023-07-30T03:58:54;97855.97;;;19.40;100.00
54936;BME280;40838;50.676;7.838;2023-07-30T04:01:23;97860.44;;;18.67;100.00
54936;BME280;40838;50.676;7.838;2023-07-30T04:03:56;97862.16;;;19.15;100.00
54936;BME280;40838;50.676;7.838;2023-07-30T04:06:22;97868.59;;;18.44;100.00
54936;BME280;40838;50.676;7.838;2023-07-30T04:08:49;97862.97;;;19.06;100.00
54936;BME280;40838;50.676;7.838;2023-07-30T04:11:16;97870.19;;;19.15;100.00
54936;BME280;40838;50.676;7.838;2023-07-30T04:13:43;97872.88;;;19.15;100.00
54936;BME280;40838;50.676;7.838;2023-07-30T04:16:11;97867.31;;;19.46;100.00
54936;BME280;40838;50.676;7.838;2023-07-30T04:18:38;97876.91;;;19.56;100.00
54936;BME280;40838;50.676;7.838;2023-07-30T04:21:12;97876.59;;;19.66;100.00
54936;BME280;40838;50.676;7.838;2023-07-30T04:23:41;97866.56;;;19.37;100.00
54936;BME280;40838;50.676;7.838;2023-07-30T04:26:11;97867.84;;;18.96;100.00
54936;BME280;40838;50.676;7.838;2023-07-30T04:28:40;97871.81;;;18.72;100.00
54936;BME280;40838;50.676;7.838;2023-07-30T04:31:17;97873.56;;;18.11;100.00
54936;BME280;40838;50.676;7.838;2023-07-30T04:33:44;97872.59;;;18.64;100.00
54936;BME280;40838;50.676;7.838;2023-07-30T04:36:17;97875.75;;;19.10;100.00
54936;BME280;40838;50.676;7.838;2023-07-30T04:38:49;97867.22;;;19.16;100.00
54936;BME280;40838;50.676;7.838;2023-07-30T04:41:32;97868.00;;;18.91;100.00
54936;BME280;40838;50.676;7.838;2023-07-30T04:44:02;97862.13;;;19.32;100.00
54936;BME280;40838;50.676;7.838;2023-07-30T04:46:29;97875.44;;;19.76;100.00
54936;BME280;40838;50.676;7.838;2023-07-30T04:48:58;97867.97;;;19.90;100.00
54936;BME280;40838;50.676;7.838;2023-07-30T04:51:27;97861.63;;;19.94;100.00
54936;BME280;40838;50.676;7.838;2023-07-30T04:53:54;97868.28;;;19.88;100.00
54936;BME280;40838;50.676;7.838;2023-07-30T04:56:21;97873.91;;;18.27;100.00
54936;BME280;40838;50.676;7.838;2023-07-30T04:59:01;97860.28;;;19.15;100.00
54936;BME280;40838;50.676;7.838;2023-07-30T05:01:30;97861.34;;;19.32;100.00
54936;BME280;40838;50.676;7.838;2023-07-30T05:04:12;97854.44;;;18.96;100.00
54936;BME280;40838;50.676;7.838;2023-07-30T05:06:44;97860.72;;;18.39;100.00
54936;BME280;40838;50.676;7.838;2023-07-30T05:09:12;97866.44;;;18.90;100.00
54936;BME280;40838;50.676;7.838;2023-07-30T05:11:41;97860.09;;;19.38;100.00
54936;BME280;40838;50.676;7.838;2023-07-30T05:14:08;97874.63;;;20.22;100.00
54936;BME280;40838;50.676;7.838;2023-07-30T05:16:35;97864.88;;;20.17;100.00
54936;BME280;40838;50.676;7.838;2023-07-30T05:19:06;97865.84;;;20.34;100.00
54936;BME280;40838;50.676;7.838;2023-07-30T05:21:34;97864.59;;;20.02;100.00
54936;BME280;40838;50.676;7.838;2023-07-30T05:24:13;97869.28;;;19.75;100.00
54936;BME280;40838;50.676;7.838;2023-07-30T05:26:40;97874.53;;;19.71;100.00
54936;BME280;40838;50.676;7.838;2023-07-30T05:29:06;97871.00;;;19.06;100.00
54936;BME280;40838;50.676;7.838;2023-07-30T05:31:48;97875.25;;;19.25;100.00
54936;BME280;40838;50.676;7.838;2023-07-30T05:34:15;97869.84;;;19.34;100.00
54936;BME280;40838;50.676;7.838;2023-07-30T05:36:42;97873.31;;;20.28;100.00
54936;BME280;40838;50.676;7.838;2023-07-30T05:39:23;97871.81;;;20.39;100.00
54936;BME280;40838;50.676;7.838;2023-07-30T05:41:53;97876.66;;;20.25;100.00
54936;BME280;40838;50.676;7.838;2023-07-30T05:44:27;97879.75;;;20.06;100.00
54936;BME280;40838;50.676;7.838;2023-07-30T05:46:54;97882.75;;;19.66;100.00
54936;BME280;40838;50.676;7.838;2023-07-30T05:49:21;97874.56;;;19.54;100.00
54936;BME280;40838;50.676;7.838;2023-07-30T05:51:52;97878.84;;;19.93;100.00
54936;BME280;40838;50.676;7.838;2023-07-30T05:54:20;97890.09;;;20.25;100.00
54936;BME280;40838;50.676;7.838;2023-07-30T05:56:49;97885.00;;;20.32;100.00
54936;BME280;40838;50.676;7.838;2023-07-30T05:59:26;97881.25;;;19.86;100.00
54936;BME280;40838;50.676;7.838;2023-07-30T06:01:55;97877.59;;;19.44;100.00
54936;BME280;40838;50.676;7.838;2023-07-30T06:04:36;97894.03;;;19.89;100.00
54936;BME280;40838;50.676;7.838;2023-07-30T06:07:03;97894.84;;;19.81;100.00
54936;BME280;40838;50.676;7.838;2023-07-30T06:09:35;97886.44;;;19.91;100.00
54936;BME280;40838;50.676;7.838;2023-07-30T06:12:05;97892.56;;;19.62;100.00
54936;BME280;40838;50.676;7.838;2023-07-30T06:14:49;97900.38;;;18.94;100.00
54936;BME280;40838;50.676;7.838;2023-07-30T06:17:16;97895.13;;;19.50;100.00
54936;BME280;40838;50.676;7.838;2023-07-30T06:19:46;97896.91;;;19.76;100.00
54936;BME280;40838;50.676;7.838;2023-07-30T06:22:18;97908.09;;;19.86;100.00
54936;BME280;40838;50.676;7.838;2023-07-30T06:24:50;97907.81;;;19.79;100.00
54936;BME280;40838;50.676;7.838;2023-07-30T06:27:17;97909.97;;;19.39;100.00
54936;BME280;40838;50.676;7.838;2023-07-30T06:29:46;97905.31;;;19.74;100.00
54936;BME280;40838;50.676;7.838;2023-07-30T06:32:13;97905.59;;;19.81;100.00
54936;BME280;40838;50.676;7.838;2023-07-30T06:34:46;97908.53;;;19.97;100.00
54936;BME280;40838;50.676;7.838;2023-07-30T06:37:18;97898.66;;;20.18;100.00
54936;BME280;40838;50.676;7.838;2023-07-30T06:39:47;97908.13;;;20.25;100.00
54936;BME280;40838;50.676;7.838;2023-07-30T06:42:15;97911.25;;;19.88;100.00
54936;BME280;40838;50.676;7.838;2023-07-30T06:44:42;97907.34;;;20.24;100.00
54936;BME280;40838;50.676;7.838;2023-07-30T06:47:09;97915.44;;;20.07;100.00
54936;BME280;40838;50.676;7.838;2023-07-30T06:49:38;97919.13;;;19.93;100.00
54936;BME280;40838;50.676;7.838;2023-07-30T06:52:05;97911.25;;;19.88;100.00
54936;BME280;40838;50.676;7.838;2023-07-30T06:54:32;97913.91;;;20.35;100.00
54936;BME280;40838;50.676;7.838;2023-07-30T06:57:04;97919.38;;;20.18;100.00
54936;BME280;40838;50.676;7.838;2023-07-30T06:59:33;97926.09;;;19.94;100.00
54936;BME280;40838;50.676;7.838;2023-07-30T07:02:00;97933.16;;;19.99;100.00
54936;BME280;40838;50.676;7.838;2023-07-30T07:04:30;97934.50;;;19.76;100.00
54936;BME280;40838;50.676;7.838;2023-07-30T07:07:04;97942.91;;;20.21;100.00
54936;BME280;40838;50.676;7.838;2023-07-30T07:09:31;97934.03;;;19.82;100.00
54936;BME280;40838;50.676;7.838;2023-07-30T07:12:00;97938.34;;;19.66;100.00
54936;BME280;40838;50.676;7.838;2023-07-30T07:14:33;97941.38;;;19.29;100.00
54936;BME280;40838;50.676;7.838;2023-07-30T07:17:00;97934.28;;;19.08;100.00
54936;BME280;40838;50.676;7.838;2023-07-30T07:19:29;97942.28;;;19.68;100.00
54936;BME280;40838;50.676;7.838;2023-07-30T07:21:58;97939.03;;;19.92;100.00
54936;BME280;40838;50.676;7.838;2023-07-30T07:24:27;97942.13;;;20.12;100.00
54936;BME280;40838;50.676;7.838;2023-07-30T07:26:54;97934.50;;;20.23;98.23
54936;BME280;40838;50.676;7.838;2023-07-30T07:29:21;97940.13;;;20.38;98.41
54936;BME280;40838;50.676;7.838;2023-07-30T07:31:51;97933.22;;;20.29;100.00
54936;BME280;40838;50.676;7.838;2023-07-30T07:34:18;97947.34;;;20.08;100.00
54936;BME280;40838;50.676;7.838;2023-07-30T07:36:45;97945.94;;;19.29;100.00
54936;BME280;40838;50.676;7.838;2023-07-30T07:39:12;97944.63;;;19.70;100.00
54936;BME280;40838;50.676;7.838;2023-07-30T07:41:41;97957.31;;;19.52;100.00
54936;BME280;40838;50.676;7.838;2023-07-30T07:44:07;97950.63;;;19.67;100.00
54936;BME280;40838;50.676;7.838;2023-07-30T07:46:35;97962.22;;;19.06;100.00
54936;BME280;40838;50.676;7.838;2023-07-30T07:49:05;97963.59;;;18.78;100.00
54936;BME280;40838;50.676;7.838;2023-07-30T07:51:42;97967.81;;;18.70;100.00
54936;BME280;40838;50.676;7.838;2023-07-30T07:54:22;97960.78;;;19.09;100.00
54936;BME280;40838;50.676;7.838;2023-07-30T07:56:49;97969.13;;;19.08;100.00
54936;BME280;40838;50.676;7.838;2023-07-30T07:59:19;97979.72;;;19.13;100.00
54936;BME280;40838;50.676;7.838;2023-07-30T08:01:45;97976.41;;;18.98;100.00
54936;BME280;40838;50.676;7.838;2023-07-30T08:04:14;97977.00;;;18.78;100.00
54936;BME280;40838;50.676;7.838;2023-07-30T08:06:42;97982.56;;;18.50;100.00
54936;BME280;40838;50.676;7.838;2023-07-30T08:09:09;97992.63;;;18.84;100.00
54936;BME280;40838;50.676;7.838;2023-07-30T08:11:38;97974.75;;;18.54;100.00
54936;BME280;40838;50.676;7.838;2023-07-30T08:14:06;97979.00;;;18.55;100.00
54936;BME280;40838;50.676;7.838;2023-07-30T08:16:33;97983.25;;;18.65;100.00
54936;BME280;40838;50.676;7.838;2023-07-30T08:19:00;97981.94;;;18.45;100.00
54936;BME280;40838;50.676;7.838;2023-07-30T08:21:28;97980.91;;;18.63;100.00
54936;BME280;40838;50.676;7.838;2023-07-30T08:23:55;97987.06;;;18.72;100.00
54936;BME280;40838;50.676;7.838;2023-07-30T08:26:21;97987.25;;;18.84;100.00
54936;BME280;40838;50.676;7.838;2023-07-30T08:28:48;98000.19;;;18.74;100.00
54936;BME280;40838;50.676;7.838;2023-07-30T08:31:15;98011.59;;;18.17;100.00
54936;BME280;40838;50.676;7.838;2023-07-30T08:33:42;98000.03;;;18.39;100.00
54936;BME280;40838;50.676;7.838;2023-07-30T08:36:11;97996.25;;;18.40;100.00
54936;BME280;40838;50.676;7.838;2023-07-30T08:38:41;97996.28;;;18.89;100.00
54936;BME280;40838;50.676;7.838;2023-07-30T08:41:08;97992.16;;;18.91;100.00
54936;BME280;40838;50.676;7.838;2023-07-30T08:43:37;97993.59;;;18.89;100.00
54936;BME280;40838;50.676;7.838;2023-07-30T08:46:05;97985.91;;;19.48;100.00
54936;BME280;40838;50.676;7.838;2023-07-30T08:48:32;97984.72;;;18.79;100.00
54936;BME280;40838;50.676;7.838;2023-07-30T08:50:59;97992.31;;;18.86;100.00
54936;BME280;40838;50.676;7.838;2023-07-30T08:53:26;97990.59;;;19.25;100.00
54936;BME280;40838;50.676;7.838;2023-07-30T08:55:55;97990.75;;;19.63;100.00
54936;BME280;40838;50.676;7.838;2023-07-30T08:58:23;97999.31;;;19.39;100.00
54936;BME280;40838;50.676;7.838;2023-07-30T09:00:55;98002.75;;;19.05;100.00
54936;BME280;40838;50.676;7.838;2023-07-30T09:03:23;98002.28;;;19.29;100.00
54936;BME280;40838;50.676;7.838;2023-07-30T09:05:51;98001.53;;;19.37;100.00
54936;BME280;40838;50.676;7.838;2023-07-30T09:08:18;98005.94;;;19.59;100.00
54936;BME280;40838;50.676;7.838;2023-07-30T09:10:45;98000.41;;;19.56;100.00
54936;BME280;40838;50.676;7.838;2023-07-30T09:13:22;98010.91;;;19.95;100.00
54936;BME280;40838;50.676;7.838;2023-07-30T09:16:08;98016.19;;;19.48;100.00
54936;BME280;40838;50.676;7.838;2023-07-30T09:18:40;98013.47;;;18.48;100.00
54936;BME280;40838;50.676;7.838;2023-07-30T09:21:07;98011.22;;;18.81;100.00
54936;BME280;40838;50.676;7.838;2023-07-30T09:23:45;98017.56;;;19.02;100.00
54936;BME280;40838;50.676;7.838;2023-07-30T09:26:16;98028.72;;;18.38;100.00
54936;BME280;40838;50.676;7.838;2023-07-30T09:28:48;98021.03;;;18.46;100.00
54936;BME280;40838;50.676;7.838;2023-07-30T09:31:17;98025.63;;;19.20;100.00
54936;BME280;40838;50.676;7.838;2023-07-30T09:33:48;98027.38;;;19.94;100.00
54936;BME280;40838;50.676;7.838;2023-07-30T09:36:19;98033.50;;;20.03;100.00
54936;BME280;40838;50.676;7.838;2023-07-30T09:41:30;98029.88;;;20.84;100.00
54936;BME280;40838;50.676;7.838;2023-07-30T09:44:03;98026.63;;;21.63;97.62
54936;BME280;40838;50.676;7.838;2023-07-30T09:46:30;98035.09;;;21.11;99.70
54936;BME280;40838;50.676;7.838;2023-07-30T09:49:00;98030.25;;;22.58;91.83
54936;BME280;40838;50.676;7.838;2023-07-30T09:51:27;98039.06;;;21.34;94.15
54936;BME280;40838;50.676;7.838;2023-07-30T09:53:55;98026.50;;;23.11;88.18
54936;BME280;40838;50.676;7.838;2023-07-30T09:56:24;98027.75;;;23.02;86.31
54936;BME280;40838;50.676;7.838;2023-07-30T09:58:54;98030.00;;;21.39;90.80
54936;BME280;40838;50.676;7.838;2023-07-30T10:01:24;98024.56;;;22.14;92.75
54936;BME280;40838;50.676;7.838;2023-07-30T10:03:56;98031.56;;;20.98;98.51
54936;BME280;40838;50.676;7.838;2023-07-30T10:06:23;98042.22;;;21.15;94.99
54936;BME280;40838;50.676;7.838;2023-07-30T10:08:53;98045.34;;;20.58;95.93
54936;BME280;40838;50.676;7.838;2023-07-30T10:11:23;98042.72;;;20.79;95.15
54936;BME280;40838;50.676;7.838;2023-07-30T10:13:54;98025.56;;;22.09;92.58
54936;BME280;40838;50.676;7.838;2023-07-30T10:16:26;98034.94;;;21.79;95.00
54936;BME280;40838;50.676;7.838;2023-07-30T10:18:58;98047.69;;;20.68;96.25
54936;BME280;40838;50.676;7.838;2023-07-30T10:21:26;98049.19;;;19.49;100.00
54936;BME280;40838;50.676;7.838;2023-07-30T10:24:08;98041.91;;;19.84;100.00
54936;BME280;40838;50.676;7.838;2023-07-30T10:26:35;98046.75;;;20.08;99.56
54936;BME280;40838;50.676;7.838;2023-07-30T10:29:34;98045.72;;;19.40;100.00
54936;BME280;40838;50.676;7.838;2023-07-30T10:32:05;98049.16;;;19.84;100.00
54936;BME280;40838;50.676;7.838;2023-07-30T10:34:44;98046.47;;;19.32;100.00
54936;BME280;40838;50.676;7.838;2023-07-30T10:37:17;98041.47;;;19.47;100.00
54936;BME280;40838;50.676;7.838;2023-07-30T10:39:47;98044.59;;;19.67;100.00
54936;BME280;40838;50.676;7.838;2023-07-30T10:42:24;98047.47;;;19.70;100.00
54936;BME280;40838;50.676;7.838;2023-07-30T10:45:01;98054.06;;;19.21;100.00
54936;BME280;40838;50.676;7.838;2023-07-30T10:47:34;98053.28;;;19.72;100.00
54936;BME280;40838;50.676;7.838;2023-07-30T10:50:03;98055.19;;;19.63;100.00
54936;BME280;40838;50.676;7.838;2023-07-30T10:52:44;98052.34;;;19.51;100.00
54936;BME280;40838;50.676;7.838;2023-07-30T10:55:11;98055.63;;;19.22;100.00
54936;BME280;40838;50.676;7.838;2023-07-30T10:57:38;98050.72;;;19.93;100.00
54936;BME280;40838;50.676;7.838;2023-07-30T11:00:06;98060.22;;;19.30;100.00
54936;BME280;40838;50.676;7.838;2023-07-30T11:02:35;98060.09;;;19.52;100.00
54936;BME280;40838;50.676;7.838;2023-07-30T11:05:13;98056.28;;;19.97;100.00
54936;BME280;40838;50.676;7.838;2023-07-30T11:07:49;98061.63;;;20.61;97.50
54936;BME280;40838;50.676;7.838;2023-07-30T11:10:18;98057.41;;;21.41;95.97
54936;BME280;40838;50.676;7.838;2023-07-30T11:12:54;98067.72;;;22.26;92.77
54936;BME280;40838;50.676;7.838;2023-07-30T11:15:21;98064.03;;;22.31;90.53
54936;BME280;40838;50.676;7.838;2023-07-30T11:17:51;98063.41;;;22.58;91.30
54936;BME280;40838;50.676;7.838;2023-07-30T11:20:28;98069.00;;;23.02;86.69
54936;BME280;40838;50.676;7.838;2023-07-30T11:22:55;98071.84;;;21.78;91.04
54936;BME280;40838;50.676;7.838;2023-07-30T11:25:24;98057.22;;;23.07;88.10
54936;BME280;40838;50.676;7.838;2023-07-30T11:27:55;98064.44;;;23.55;82.95
54936;BME280;40838;50.676;7.838;2023-07-30T11:30:25;98053.53;;;22.87;87.40
54936;BME280;40838;50.676;7.838;2023-07-30T11:32:56;98048.47;;;21.49;88.92
54936;BME280;40838;50.676;7.838;2023-07-30T11:35:25;98047.25;;;21.59;89.19
54936;BME280;40838;50.676;7.838;2023-07-30T11:37:52;98054.63;;;22.49;82.80
54936;BME280;40838;50.676;7.838;2023-07-30T11:40:19;98049.84;;;22.21;82.23
54936;BME280;40838;50.676;7.838;2023-07-30T11:42:59;98048.41;;;21.58;83.47
54936;BME280;40838;50.676;7.838;2023-07-30T11:45:26;98049.69;;;21.51;86.81
54936;BME280;40838;50.676;7.838;2023-07-30T11:48:07;98064.41;;;21.54;87.14
54936;BME280;40838;50.676;7.838;2023-07-30T11:50:45;98056.66;;;21.52;85.47
54936;BME280;40838;50.676;7.838;2023-07-30T11:53:14;98073.41;;;21.79;86.10
54936;BME280;40838;50.676;7.838;2023-07-30T11:55:42;98073.66;;;21.23;83.76
54936;BME280;40838;50.676;7.838;2023-07-30T11:58:11;98075.19;;;20.74;86.85
54936;BME280;40838;50.676;7.838;2023-07-30T12:01:08;98075.63;;;20.84;89.60
54936;BME280;40838;50.676;7.838;2023-07-30T12:03:29;98074.25;;;21.29;90.13
54936;BME280;40838;50.676;7.838;2023-07-30T12:05:57;98085.50;;;21.52;86.17
54936;BME280;40838;50.676;7.838;2023-07-30T12:08:48;98068.03;;;23.47;83.96
54936;BME280;40838;50.676;7.838;2023-07-30T12:11:17;98069.53;;;23.32;78.01
54936;BME280;40838;50.676;7.838;2023-07-30T12:13:45;98080.81;;;22.15;82.19
54936;BME280;40838;50.676;7.838;2023-07-30T12:16:14;98083.28;;;22.54;79.41
54936;BME280;40838;50.676;7.838;2023-07-30T12:18:42;98066.66;;;23.53;79.72
54936;BME280;40838;50.676;7.838;2023-07-30T12:21:17;98067.78;;;24.37;74.55
54936;BME280;40838;50.676;7.838;2023-07-30T12:23:55;98072.00;;;23.78;78.98
54936;BME280;40838;50.676;7.838;2023-07-30T12:26:22;98069.06;;;24.11;70.76
54936;BME280;40838;50.676;7.838;2023-07-30T12:28:48;98067.38;;;23.78;68.90
54936;BME280;40838;50.676;7.838;2023-07-30T12:31:15;98075.31;;;23.31;70.51
54936;BME280;40838;50.676;7.838;2023-07-30T12:33:43;98066.09;;;22.46;71.87
54936;BME280;40838;50.676;7.838;2023-07-30T12:36:10;98063.25;;;23.69;69.66
54936;BME280;40838;50.676;7.838;2023-07-30T12:38:37;98066.41;;;24.59;60.44
54936;BME280;40838;50.676;7.838;2023-07-30T12:41:05;98063.81;;;24.02;61.75
54936;BME280;40838;50.676;7.838;2023-07-30T12:43:34;98076.28;;;23.51;64.95
54936;BME280;40838;50.676;7.838;2023-07-30T12:46:02;98074.75;;;23.66;69.53
54936;BME280;40838;50.676;7.838;2023-07-30T12:48:31;98076.06;;;24.28;66.62
54936;BME280;40838;50.676;7.838;2023-07-30T12:50:59;98076.22;;;22.86;72.59
54936;BME280;40838;50.676;7.838;2023-07-30T12:53:26;98080.94;;;23.26;68.08
54936;BME280;40838;50.676;7.838;2023-07-30T12:55:54;98066.66;;;23.66;70.27
54936;BME280;40838;50.676;7.838;2023-07-30T12:58:21;98078.22;;;22.89;70.31
54936;BME280;40838;50.676;7.838;2023-07-30T13:00:51;98073.44;;;23.60;69.54
54936;BME280;40838;50.676;7.838;2023-07-30T13:03:22;98070.25;;;23.98;66.23
54936;BME280;40838;50.676;7.838;2023-07-30T13:05:49;98079.06;;;22.32;68.19
54936;BME280;40838;50.676;7.838;2023-07-30T13:08:26;98084.78;;;22.30;69.42
54936;BME280;40838;50.676;7.838;2023-07-30T13:10:53;98081.56;;;22.37;70.37